createdAt,value
2023-05-21T00:00:08.512Z,267.00
2023-05-21T00:01:08.458Z,267.00
2023-05-21T00:02:08.483Z,266.00
2023-05-21T00:03:08.525Z,266.00
2023-05-21T00:04:08.485Z,266.00
2023-05-21T00:05:08.496Z,265.00
2023-05-21T00:06:08.668Z,263.00
2023-05-21T00:07:08.610Z,262.00
2023-05-21T00:08:08.688Z,263.00
2023-05-21T00:09:08.695Z,264.00
2023-05-21T00:10:08.758Z,264.00
2023-05-21T00:11:08.823Z,267.00
2023-05-21T00:12:08.855Z,269.00
2023-05-21T00:13:08.914Z,271.00
2023-05-21T00:14:08.977Z,270.00
2023-05-21T00:15:09.035Z,270.00
2023-05-21T00:16:09.155Z,269.00
2023-05-21T00:17:09.166Z,267.00
2023-05-21T00:18:09.318Z,266.00
2023-05-21T00:19:09.346Z,265.00
2023-05-21T00:20:09.322Z,266.00
2023-05-21T00:21:09.339Z,267.00
2023-05-21T00:22:09.431Z,266.00
2023-05-21T00:23:09.480Z,265.00
2023-05-21T00:24:09.567Z,262.00
2023-05-21T00:25:09.575Z,261.00
2023-05-21T00:26:09.599Z,262.00
2023-05-21T00:27:09.680Z,263.00
2023-05-21T00:28:09.718Z,262.00
2023-05-21T00:29:09.805Z,261.00
2023-05-21T00:30:09.848Z,262.00
2023-05-21T00:31:09.886Z,262.00
2023-05-21T00:32:10.005Z,262.00
2023-05-21T00:33:10.056Z,262.00
2023-05-21T00:34:10.077Z,263.00
2023-05-21T00:35:10.109Z,264.00
2023-05-21T00:36:10.163Z,265.00
2023-05-21T00:37:10.238Z,267.00
2023-05-21T00:38:10.255Z,267.00
2023-05-21T00:39:10.349Z,267.00
2023-05-21T00:40:10.378Z,268.00
2023-05-21T00:41:10.457Z,268.00
2023-05-21T00:42:10.527Z,269.00
2023-05-21T00:43:10.553Z,268.00
2023-05-21T00:44:10.598Z,269.00
2023-05-21T00:45:10.645Z,272.00
2023-05-21T00:46:10.818Z,272.00
2023-05-21T00:47:10.797Z,271.00
2023-05-21T00:48:10.820Z,270.00
2023-05-21T00:49:10.874Z,272.00
2023-05-21T00:50:10.948Z,272.00
2023-05-21T00:51:11.043Z,272.00
2023-05-21T00:52:11.056Z,272.00
2023-05-21T00:53:11.126Z,273.00
2023-05-21T00:54:11.202Z,273.00
2023-05-21T00:55:11.240Z,276.00
2023-05-21T00:56:11.317Z,274.00
2023-05-21T00:57:11.362Z,275.00
2023-05-21T00:58:11.413Z,275.00
2023-05-21T00:59:11.478Z,274.00
2023-05-21T01:00:11.542Z,273.00
2023-05-21T01:01:11.663Z,271.00
2023-05-21T01:02:11.719Z,272.00
2023-05-21T01:03:11.969Z,270.00
2023-05-21T01:04:11.777Z,270.00
2023-05-21T01:05:11.846Z,269.00
2023-05-21T01:06:11.898Z,268.00
2023-05-21T01:07:11.957Z,267.00
2023-05-21T01:08:12.002Z,269.00
2023-05-21T01:09:12.118Z,270.00
2023-05-21T01:10:12.163Z,270.00
2023-05-21T01:11:12.207Z,269.00
2023-05-21T01:12:12.275Z,269.00
2023-05-21T01:13:12.356Z,268.00
2023-05-21T01:14:12.403Z,268.00
2023-05-21T01:15:12.456Z,267.00
2023-05-21T01:16:12.543Z,265.00
2023-05-21T01:17:12.631Z,265.00
2023-05-21T01:18:12.679Z,265.00
2023-05-21T01:19:12.772Z,266.00
2023-05-21T01:20:12.760Z,265.00
2023-05-21T01:21:12.840Z,265.00
2023-05-21T01:22:12.886Z,266.00
2023-05-21T01:23:12.950Z,264.00
2023-05-21T01:24:12.995Z,266.00
2023-05-21T01:25:13.073Z,266.00
2023-05-21T01:26:13.141Z,266.00
2023-05-21T01:27:13.293Z,265.00
2023-05-21T01:28:13.264Z,266.00
2023-05-21T01:29:13.367Z,267.00
2023-05-21T01:30:13.362Z,265.00
2023-05-21T01:31:13.453Z,266.00
2023-05-21T01:32:13.476Z,267.00
2023-05-21T01:33:13.640Z,268.00
2023-05-21T01:34:13.653Z,267.00
2023-05-21T01:35:13.716Z,266.00
2023-05-21T01:36:13.739Z,266.00
2023-05-21T01:37:13.828Z,263.00
2023-05-21T01:38:13.876Z,262.00
2023-05-21T01:39:13.925Z,264.00
2023-05-21T01:40:14.013Z,265.00
2023-05-21T01:41:14.044Z,264.00
2023-05-21T01:42:14.136Z,264.00
2023-05-21T01:43:14.168Z,263.00
2023-05-21T01:44:14.203Z,262.00
2023-05-21T01:45:14.315Z,262.00
2023-05-21T01:46:14.440Z,263.00
2023-05-21T01:47:14.414Z,262.00
2023-05-21T01:48:14.463Z,263.00
2023-05-21T01:49:14.554Z,264.00
2023-05-21T01:50:14.588Z,263.00
2023-05-21T01:51:14.620Z,263.00
2023-05-21T01:52:14.686Z,261.00
2023-05-21T01:53:14.753Z,262.00
2023-05-21T01:54:14.801Z,263.00
2023-05-21T01:55:14.879Z,265.00
2023-05-21T01:56:14.938Z,264.00
2023-05-21T01:57:15.064Z,262.00
2023-05-21T01:58:15.088Z,263.00
2023-05-21T01:59:15.176Z,266.00
2023-05-21T02:00:15.222Z,267.00
2023-05-21T02:01:15.290Z,266.00
2023-05-21T02:02:15.375Z,267.00
2023-05-21T02:03:15.449Z,267.00
2023-05-21T02:04:15.461Z,266.00
2023-05-21T02:05:15.527Z,266.00
2023-05-21T02:06:15.614Z,268.00
2023-05-21T02:07:15.658Z,270.00
2023-05-21T02:08:15.727Z,271.00
2023-05-21T02:09:15.793Z,270.00
2023-05-21T02:10:15.932Z,269.00
2023-05-21T02:11:15.903Z,269.00
2023-05-21T02:12:16.009Z,269.00
2023-05-21T02:13:16.053Z,269.00
2023-05-21T02:14:16.139Z,270.00
2023-05-21T02:15:16.191Z,271.00
2023-05-21T02:16:16.255Z,271.00
2023-05-21T02:17:16.235Z,270.00
2023-05-21T02:18:16.286Z,270.00
2023-05-21T02:19:16.462Z,271.00
2023-05-21T02:20:16.379Z,269.00
2023-05-21T02:21:16.494Z,269.00
2023-05-21T02:22:16.503Z,269.00
2023-05-21T02:23:16.534Z,269.00
2023-05-21T02:24:16.618Z,271.00
2023-05-21T02:25:16.675Z,272.00
2023-05-21T02:26:16.713Z,269.00
2023-05-21T02:27:16.757Z,266.00
2023-05-21T02:28:16.814Z,265.00
2023-05-21T02:29:16.840Z,264.00
2023-05-21T02:30:16.922Z,265.00
2023-05-21T02:31:16.974Z,267.00
2023-05-21T02:32:17.011Z,266.00
2023-05-21T02:33:17.007Z,267.00
2023-05-21T02:34:17.107Z,268.00
2023-05-21T02:35:17.107Z,269.00
2023-05-21T02:36:17.197Z,270.00
2023-05-21T02:37:17.209Z,271.00
2023-05-21T02:38:17.233Z,271.00
2023-05-21T02:39:17.339Z,272.00
2023-05-21T02:40:17.353Z,269.00
2023-05-21T02:41:17.395Z,268.00
2023-05-21T02:42:17.461Z,270.00
2023-05-21T02:43:17.518Z,268.00
2023-05-21T02:44:17.576Z,266.00
2023-05-21T02:45:17.648Z,265.00
2023-05-21T02:46:17.770Z,266.00
2023-05-21T02:47:17.750Z,268.00
2023-05-21T02:48:17.784Z,267.00
2023-05-21T02:49:17.807Z,267.00
2023-05-21T02:50:17.880Z,268.00
2023-05-21T02:51:17.860Z,267.00
2023-05-21T02:52:17.922Z,267.00
2023-05-21T02:53:17.982Z,268.00
2023-05-21T02:54:18.036Z,268.00
2023-05-21T02:55:18.091Z,269.00
2023-05-21T02:56:18.121Z,267.00
2023-05-21T02:57:18.159Z,267.00
2023-05-21T02:58:18.187Z,267.00
2023-05-21T02:59:18.228Z,267.00
2023-05-21T03:00:18.287Z,267.00
2023-05-21T03:01:18.281Z,267.00
2023-05-21T03:02:18.407Z,267.00
2023-05-21T03:03:18.431Z,267.00
2023-05-21T03:04:18.379Z,267.00
2023-05-21T03:05:18.453Z,265.00
2023-05-21T03:06:18.474Z,264.00
2023-05-21T03:07:18.457Z,264.00
2023-05-21T03:08:18.499Z,265.00
2023-05-21T03:09:18.561Z,266.00
2023-05-21T03:10:18.554Z,269.00
2023-05-21T03:11:18.622Z,268.00
2023-05-21T03:12:18.679Z,268.00
2023-05-21T03:13:18.751Z,269.00
2023-05-21T03:14:18.760Z,268.00
2023-05-21T03:15:18.769Z,267.00
2023-05-21T03:16:18.847Z,267.00
2023-05-21T03:17:18.818Z,269.00
2023-05-21T03:18:18.848Z,270.00
2023-05-21T03:19:18.927Z,269.00
2023-05-21T03:20:19.037Z,269.00
2023-05-21T03:21:18.929Z,270.00
2023-05-21T03:22:18.937Z,268.00
2023-05-21T03:23:18.975Z,268.00
2023-05-21T03:24:19.021Z,269.00
2023-05-21T03:25:19.136Z,269.00
2023-05-21T03:26:19.142Z,269.00
2023-05-21T03:27:19.128Z,271.00
2023-05-21T03:28:19.271Z,270.00
2023-05-21T03:29:19.163Z,271.00
2023-05-21T03:30:19.229Z,271.00
2023-05-21T03:31:19.263Z,271.00
2023-05-21T03:32:19.391Z,269.00
2023-05-21T03:33:19.241Z,267.00
2023-05-21T03:34:19.244Z,265.00
2023-05-21T03:35:19.222Z,266.00
2023-05-21T03:36:19.205Z,265.00
2023-05-21T03:37:19.216Z,268.00
2023-05-21T03:38:19.220Z,269.00
2023-05-21T03:39:19.260Z,266.00
2023-05-21T03:40:19.283Z,267.00
2023-05-21T03:41:19.274Z,267.00
2023-05-21T03:42:19.303Z,268.00
2023-05-21T03:43:19.281Z,266.00
2023-05-21T03:44:19.318Z,268.00
2023-05-21T03:45:19.306Z,270.00
2023-05-21T03:46:19.396Z,271.00
2023-05-21T03:47:19.392Z,268.00
2023-05-21T03:48:19.448Z,268.00
2023-05-21T03:49:19.424Z,268.00
2023-05-21T03:50:19.461Z,269.00
2023-05-21T03:51:19.461Z,268.00
2023-05-21T03:52:19.489Z,269.00
2023-05-21T03:53:19.545Z,270.00
2023-05-21T03:54:19.549Z,269.00
2023-05-21T03:55:19.574Z,269.00
2023-05-21T03:56:19.515Z,268.00
2023-05-21T03:57:19.587Z,269.00
2023-05-21T03:58:19.574Z,270.00
2023-05-21T03:59:19.624Z,272.00
2023-05-21T04:00:19.619Z,271.00
2023-05-21T04:01:19.625Z,271.00
2023-05-21T04:02:19.665Z,270.00
2023-05-21T04:03:19.882Z,269.00
2023-05-21T04:04:19.745Z,268.00
2023-05-21T04:05:19.708Z,267.00
2023-05-21T04:06:19.729Z,265.00
2023-05-21T04:07:19.728Z,267.00
2023-05-21T04:08:19.785Z,266.00
2023-05-21T04:09:19.790Z,265.00
2023-05-21T04:10:19.801Z,265.00
2023-05-21T04:11:19.802Z,265.00
2023-05-21T04:12:19.828Z,267.00
2023-05-21T04:13:19.864Z,265.00
2023-05-21T04:14:19.869Z,266.00
2023-05-21T04:15:19.927Z,266.00
2023-05-21T04:16:19.957Z,266.00
2023-05-21T04:17:19.997Z,265.00
2023-05-21T04:18:20.049Z,265.00
2023-05-21T04:19:20.162Z,265.00
2023-05-21T04:20:20.179Z,267.00
2023-05-21T04:21:20.216Z,266.00
2023-05-21T04:22:20.239Z,264.00
2023-05-21T04:23:20.294Z,264.00
2023-05-21T04:24:20.361Z,261.00
2023-05-21T04:25:20.379Z,260.00
2023-05-21T04:26:20.400Z,260.00
2023-05-21T04:27:20.454Z,262.00
2023-05-21T04:28:20.543Z,261.00
2023-05-21T04:29:20.500Z,259.00
2023-05-21T04:30:20.572Z,260.00
2023-05-21T04:31:20.569Z,258.00
2023-05-21T04:32:20.664Z,260.00
2023-05-21T04:33:20.643Z,260.00
2023-05-21T04:34:20.675Z,261.00
2023-05-21T04:35:20.678Z,264.00
2023-05-21T04:36:20.726Z,264.00
2023-05-21T04:37:20.771Z,264.00
2023-05-21T04:38:20.903Z,262.00
2023-05-21T04:39:20.876Z,262.00
2023-05-21T04:40:20.922Z,261.00
2023-05-21T04:41:20.996Z,261.00
2023-05-21T04:42:20.992Z,260.00
2023-05-21T04:43:21.081Z,261.00
2023-05-21T04:44:21.034Z,263.00
2023-05-21T04:45:21.095Z,264.00
2023-05-21T04:46:21.184Z,266.00
2023-05-21T04:47:21.217Z,266.00
2023-05-21T04:48:21.217Z,266.00
2023-05-21T04:49:21.257Z,266.00
2023-05-21T04:50:21.290Z,266.00
2023-05-21T04:51:21.374Z,266.00
2023-05-21T04:52:21.414Z,267.00
2023-05-21T04:53:21.489Z,270.00
2023-05-21T04:54:21.506Z,271.00
2023-05-21T04:55:21.542Z,271.00
2023-05-21T04:56:21.604Z,269.00
2023-05-21T04:57:21.649Z,268.00
2023-05-21T04:58:21.722Z,266.00
2023-05-21T04:59:21.755Z,265.00
2023-05-21T05:00:21.770Z,265.00
2023-05-21T05:01:21.910Z,264.00
2023-05-21T05:02:21.916Z,262.00
2023-05-21T05:03:22.050Z,263.00
2023-05-21T05:04:22.010Z,263.00
2023-05-21T05:05:22.075Z,263.00
2023-05-21T05:06:22.127Z,262.00
2023-05-21T05:07:22.231Z,263.00
2023-05-21T05:08:22.296Z,263.00
2023-05-21T05:09:22.309Z,265.00
2023-05-21T05:10:22.336Z,264.00
2023-05-21T05:11:22.485Z,267.00
2023-05-21T05:12:22.474Z,267.00
2023-05-21T05:13:22.553Z,266.00
2023-05-21T05:14:22.682Z,266.00
2023-05-21T05:15:22.703Z,265.00
2023-05-21T05:16:22.751Z,265.00
2023-05-21T05:17:22.827Z,264.00
2023-05-21T05:18:22.911Z,266.00
2023-05-21T05:19:22.979Z,267.00
2023-05-21T05:20:23.040Z,268.00
2023-05-21T05:21:23.011Z,268.00
2023-05-21T05:22:23.060Z,264.00
2023-05-21T05:23:23.078Z,264.00
2023-05-21T05:24:23.172Z,265.00
2023-05-21T05:25:23.205Z,264.00
2023-05-21T05:26:23.269Z,265.00
2023-05-21T05:27:23.388Z,266.00
2023-05-21T05:28:23.398Z,266.00
2023-05-21T05:29:23.456Z,265.00
2023-05-21T05:30:23.513Z,264.00
2023-05-21T05:31:23.663Z,263.00
2023-05-21T05:32:23.694Z,261.00
2023-05-21T05:33:23.702Z,262.00
2023-05-21T05:34:23.753Z,262.00
2023-05-21T05:35:23.780Z,261.00
2023-05-21T05:36:23.859Z,261.00
2023-05-21T05:37:23.901Z,262.00
2023-05-21T05:38:23.978Z,262.00
2023-05-21T05:39:24.001Z,263.00
2023-05-21T05:40:24.100Z,266.00
2023-05-21T05:41:24.166Z,266.00
2023-05-21T05:42:24.181Z,267.00
2023-05-21T05:43:24.213Z,266.00
2023-05-21T05:44:24.296Z,263.00
2023-05-21T05:45:24.327Z,263.00
2023-05-21T05:46:24.390Z,264.00
2023-05-21T05:47:24.568Z,263.00
2023-05-21T05:48:24.515Z,262.00
2023-05-21T05:49:24.523Z,260.00
2023-05-21T05:50:24.570Z,258.00
2023-05-21T05:51:24.638Z,257.00
2023-05-21T05:52:24.701Z,258.00
2023-05-21T05:53:24.751Z,260.00
2023-05-21T05:54:24.803Z,259.00
2023-05-21T05:55:24.886Z,259.00
2023-05-21T05:56:24.869Z,258.00
2023-05-21T05:57:24.917Z,256.00
2023-05-21T05:58:25.046Z,254.00
2023-05-21T05:59:25.008Z,252.00
2023-05-21T06:00:25.100Z,253.00
2023-05-21T06:01:25.149Z,253.00
2023-05-21T06:02:25.295Z,254.00
2023-05-21T06:03:25.427Z,255.00
2023-05-21T06:04:25.268Z,256.00
2023-05-21T06:05:25.403Z,257.00
2023-05-21T06:06:25.354Z,259.00
2023-05-21T06:07:25.410Z,259.00
2023-05-21T06:08:25.553Z,259.00
2023-05-21T06:09:25.505Z,258.00
2023-05-21T06:10:25.585Z,258.00
2023-05-21T06:11:25.668Z,258.00
2023-05-21T06:12:25.657Z,256.00
2023-05-21T06:13:25.860Z,256.00
2023-05-21T06:14:25.791Z,257.00
2023-05-21T06:15:25.765Z,258.00
2023-05-21T06:16:25.904Z,260.00
2023-05-21T06:17:25.947Z,258.00
2023-05-21T06:18:25.951Z,257.00
2023-05-21T06:19:26.188Z,258.00
2023-05-21T06:20:26.005Z,257.00
2023-05-21T06:21:26.056Z,257.00
2023-05-21T06:22:26.105Z,257.00
2023-05-21T06:23:26.140Z,256.00
2023-05-21T06:24:26.199Z,257.00
2023-05-21T06:25:26.229Z,256.00
2023-05-21T06:26:26.259Z,255.00
2023-05-21T06:27:26.326Z,255.00
2023-05-21T06:28:26.360Z,254.00
2023-05-21T06:29:26.403Z,253.00
2023-05-21T06:30:26.485Z,252.00
2023-05-21T06:31:26.494Z,251.00
2023-05-21T06:32:26.626Z,252.00
2023-05-21T06:33:26.723Z,250.00
2023-05-21T06:34:26.650Z,251.00
2023-05-21T06:35:26.679Z,251.00
2023-05-21T06:36:26.796Z,252.00
2023-05-21T06:37:26.847Z,252.00
2023-05-21T06:38:26.848Z,251.00
2023-05-21T06:39:26.912Z,252.00
2023-05-21T06:40:26.891Z,251.00
2023-05-21T06:41:26.955Z,252.00
2023-05-21T06:42:27.548Z,251.00
2023-05-21T06:43:27.060Z,253.00
2023-05-21T06:44:27.090Z,252.00
2023-05-21T06:45:27.163Z,253.00
2023-05-21T06:46:27.257Z,256.00
2023-05-21T06:47:27.239Z,255.00
2023-05-21T06:48:27.286Z,254.00
2023-05-21T06:49:27.322Z,254.00
2023-05-21T06:50:27.413Z,254.00
2023-05-21T06:51:27.412Z,256.00
2023-05-21T06:52:27.472Z,256.00
2023-05-21T06:53:27.519Z,257.00
2023-05-21T06:54:27.575Z,258.00
2023-05-21T06:55:27.603Z,259.00
2023-05-21T06:56:27.675Z,258.00
2023-05-21T06:57:27.674Z,258.00
2023-05-21T06:58:27.727Z,258.00
2023-05-21T06:59:27.807Z,255.00
2023-05-21T07:00:27.888Z,252.00
2023-05-21T07:01:27.938Z,250.00
2023-05-21T07:02:28.037Z,248.00
2023-05-21T07:03:28.129Z,248.00
2023-05-21T07:04:28.002Z,250.00
2023-05-21T07:05:28.026Z,252.00
2023-05-21T07:06:28.083Z,256.00
2023-05-21T07:07:28.135Z,257.00
2023-05-21T07:08:28.180Z,258.00
2023-05-21T07:09:28.212Z,255.00
2023-05-21T07:10:28.251Z,255.00
2023-05-21T07:11:28.294Z,255.00
2023-05-21T07:12:28.316Z,254.00
2023-05-21T07:13:28.367Z,254.00
2023-05-21T07:14:28.409Z,253.00
2023-05-21T07:15:28.482Z,254.00
2023-05-21T07:16:28.539Z,254.00
2023-05-21T07:17:28.605Z,254.00
2023-05-21T07:18:28.611Z,253.00
2023-05-21T07:19:28.785Z,251.00
2023-05-21T07:20:28.670Z,250.00
2023-05-21T07:21:28.730Z,250.00
2023-05-21T07:22:28.774Z,250.00
2023-05-21T07:23:28.856Z,249.00
2023-05-21T07:24:28.903Z,250.00
2023-05-21T07:25:28.905Z,251.00
2023-05-21T07:26:28.956Z,251.00
2023-05-21T07:27:29.026Z,251.00
2023-05-21T07:28:29.017Z,250.00
2023-05-21T07:29:29.088Z,250.00
2023-05-21T07:30:29.106Z,250.00
2023-05-21T07:31:29.301Z,250.00
2023-05-21T07:32:29.362Z,249.00
2023-05-21T07:33:29.263Z,248.00
2023-05-21T07:34:29.332Z,250.00
2023-05-21T07:35:29.343Z,249.00
2023-05-21T07:36:29.460Z,250.00
2023-05-21T07:37:29.508Z,251.00
2023-05-21T07:38:29.497Z,252.00
2023-05-21T07:39:29.518Z,252.00
2023-05-21T07:40:29.574Z,253.00
2023-05-21T07:41:29.620Z,252.00
2023-05-21T07:42:29.699Z,252.00
2023-05-21T07:43:29.705Z,253.00
2023-05-21T07:44:29.742Z,252.00
2023-05-21T07:45:29.808Z,252.00
2023-05-21T07:46:29.905Z,253.00
2023-05-21T07:47:29.874Z,252.00
2023-05-21T07:48:29.900Z,251.00
2023-05-21T07:49:29.952Z,251.00
2023-05-21T07:50:30.013Z,252.00
2023-05-21T07:51:30.021Z,252.00
2023-05-21T07:52:30.076Z,251.00
2023-05-21T07:53:30.080Z,250.00
2023-05-21T07:54:30.128Z,250.00
2023-05-21T07:55:30.148Z,251.00
2023-05-21T07:56:30.143Z,248.00
2023-05-21T07:57:30.224Z,249.00
2023-05-21T07:58:30.254Z,246.00
2023-05-21T07:59:30.305Z,246.00
2023-05-21T08:00:30.352Z,246.00
2023-05-21T08:01:30.361Z,246.00
2023-05-21T08:02:30.565Z,248.00
2023-05-21T08:03:30.568Z,248.00
2023-05-21T08:04:30.689Z,249.00
2023-05-21T08:05:30.635Z,251.00
2023-05-21T08:06:30.623Z,251.00
2023-05-21T08:07:30.687Z,251.00
2023-05-21T08:08:30.715Z,251.00
2023-05-21T08:09:30.741Z,251.00
2023-05-21T08:10:30.805Z,251.00
2023-05-21T08:11:30.867Z,251.00
2023-05-21T08:12:30.869Z,252.00
2023-05-21T08:13:30.948Z,255.00
2023-05-21T08:14:30.977Z,254.00
2023-05-21T08:15:31.053Z,252.00
2023-05-21T08:16:31.117Z,251.00
2023-05-21T08:17:31.215Z,251.00
2023-05-21T08:18:31.175Z,249.00
2023-05-21T08:19:31.412Z,251.00
2023-05-21T08:20:31.290Z,250.00
2023-05-21T08:21:31.336Z,253.00
2023-05-21T08:22:31.416Z,254.00
2023-05-21T08:23:31.418Z,255.00
2023-05-21T08:24:31.452Z,254.00
2023-05-21T08:25:31.513Z,251.00
2023-05-21T08:26:31.538Z,251.00
2023-05-21T08:27:31.586Z,251.00
2023-05-21T08:28:31.654Z,250.00
2023-05-21T08:29:31.703Z,252.00
2023-05-21T08:30:31.776Z,252.00
2023-05-21T08:31:31.792Z,252.00
2023-05-21T08:32:31.832Z,251.00
2023-05-21T08:33:31.829Z,249.00
2023-05-21T08:34:31.908Z,249.00
2023-05-21T08:35:31.951Z,248.00
2023-05-21T08:36:32.022Z,250.00
2023-05-21T08:37:32.035Z,251.00
2023-05-21T08:38:32.071Z,250.00
2023-05-21T08:39:32.079Z,251.00
2023-05-21T08:40:32.142Z,251.00
2023-05-21T08:41:32.205Z,250.00
2023-05-21T08:42:37.111Z,251.00
2023-05-21T08:43:33.238Z,252.00
2023-05-21T08:44:32.200Z,250.00
2023-05-21T08:45:32.228Z,250.00
2023-05-21T08:46:32.195Z,251.00
2023-05-21T08:47:32.250Z,252.00
2023-05-21T08:48:32.216Z,250.00
2023-05-21T08:49:32.201Z,252.00
2023-05-21T08:50:32.141Z,251.00
2023-05-21T08:51:32.157Z,252.00
2023-05-21T08:52:32.183Z,255.00
2023-05-21T08:53:32.172Z,253.00
2023-05-21T08:54:32.175Z,252.00
2023-05-21T08:55:32.195Z,251.00
2023-05-21T08:56:32.265Z,251.00
2023-05-21T08:57:32.306Z,251.00
2023-05-21T08:58:32.309Z,253.00
2023-05-21T08:59:32.385Z,255.00
2023-05-21T09:00:32.359Z,255.00
2023-05-21T09:01:32.480Z,256.00
2023-05-21T09:02:32.493Z,253.00
2023-05-21T09:03:32.552Z,253.00
2023-05-21T09:04:32.567Z,254.00
2023-05-21T09:05:32.516Z,253.00
2023-05-21T09:06:32.603Z,256.00
2023-05-21T09:07:32.570Z,256.00
2023-05-21T09:08:32.646Z,256.00
2023-05-21T09:09:32.639Z,255.00
2023-05-21T09:10:32.666Z,255.00
2023-05-21T09:11:32.654Z,255.00
2023-05-21T09:12:32.722Z,253.00
2023-05-21T09:13:32.804Z,252.00
2023-05-21T09:14:32.797Z,249.00
2023-05-21T09:15:32.851Z,248.00
2023-05-21T09:16:32.899Z,248.00
2023-05-21T09:17:32.949Z,250.00
2023-05-21T09:18:32.973Z,250.00
2023-05-21T09:19:33.151Z,250.00
2023-05-21T09:20:33.080Z,251.00
2023-05-21T09:21:33.078Z,251.00
2023-05-21T09:22:33.163Z,251.00
2023-05-21T09:23:33.149Z,250.00
2023-05-21T09:24:35.713Z,249.00
2023-05-21T09:25:33.282Z,250.00
2023-05-21T09:26:33.178Z,249.00
2023-05-21T09:27:33.187Z,249.00
2023-05-21T09:28:33.188Z,248.00
2023-05-21T09:29:33.196Z,248.00
2023-05-21T09:30:35.957Z,248.00
2023-05-21T09:31:33.291Z,246.00
2023-05-21T09:32:33.171Z,246.00
2023-05-21T09:33:33.175Z,246.00
2023-05-21T09:34:33.137Z,245.00
2023-05-21T09:35:33.124Z,246.00
2023-05-21T09:36:33.193Z,245.00
2023-05-21T09:37:33.157Z,244.00
2023-05-21T09:38:33.137Z,243.00
2023-05-21T09:39:33.084Z,243.00
2023-05-21T09:40:33.101Z,245.00
2023-05-21T09:41:33.119Z,247.00
2023-05-21T09:42:33.115Z,249.00
2023-05-21T09:43:33.101Z,249.00
2023-05-21T09:44:33.103Z,249.00
2023-05-21T09:45:33.083Z,248.00
2023-05-21T09:46:33.053Z,249.00
2023-05-21T09:47:33.058Z,249.00
2023-05-21T09:48:33.050Z,249.00
2023-05-21T09:49:33.090Z,248.00
2023-05-21T09:50:33.037Z,247.00
2023-05-21T09:51:33.100Z,248.00
2023-05-21T09:52:33.045Z,248.00
2023-05-21T09:53:33.009Z,248.00
2023-05-21T09:54:32.985Z,247.00
2023-05-21T09:55:32.976Z,249.00
2023-05-21T09:56:33.012Z,249.00
2023-05-21T09:57:32.972Z,249.00
2023-05-21T09:58:32.987Z,247.00
2023-05-21T09:59:33.028Z,246.00
2023-05-21T10:00:32.943Z,246.00
2023-05-21T10:01:33.044Z,246.00
2023-05-21T10:02:32.952Z,245.00
2023-05-21T10:03:32.928Z,246.00
2023-05-21T10:04:33.012Z,248.00
2023-05-21T10:05:32.941Z,249.00
2023-05-21T10:06:32.939Z,250.00
2023-05-21T10:07:32.928Z,253.00
2023-05-21T10:08:32.947Z,251.00
2023-05-21T10:09:32.918Z,250.00
2023-05-21T10:10:32.891Z,251.00
2023-05-21T10:11:32.880Z,251.00
2023-05-21T10:12:32.880Z,252.00
2023-05-21T10:13:32.885Z,254.00
2023-05-21T10:14:32.868Z,254.00
2023-05-21T10:15:32.900Z,255.00
2023-05-21T10:16:32.869Z,252.00
2023-05-21T10:17:32.846Z,250.00
2023-05-21T10:18:32.871Z,250.00
2023-05-21T10:19:32.930Z,251.00
2023-05-21T10:20:32.826Z,252.00
2023-05-21T10:21:32.832Z,252.00
2023-05-21T10:22:32.847Z,252.00
2023-05-21T10:23:32.830Z,251.00
2023-05-21T10:24:32.780Z,252.00
2023-05-21T10:25:32.847Z,252.00
2023-05-21T10:26:32.823Z,251.00
2023-05-21T10:27:33.058Z,250.00
2023-05-21T10:28:32.780Z,249.00
2023-05-21T10:29:32.797Z,250.00
2023-05-21T10:30:32.793Z,250.00
2023-05-21T10:31:32.757Z,251.00
2023-05-21T10:32:32.787Z,251.00
2023-05-21T10:33:32.835Z,251.00
2023-05-21T10:34:32.752Z,250.00
2023-05-21T10:35:32.769Z,249.00
2023-05-21T10:36:32.750Z,249.00
2023-05-21T10:37:32.749Z,247.00
2023-05-21T10:38:32.731Z,247.00
2023-05-21T10:39:32.738Z,246.00
2023-05-21T10:40:32.674Z,247.00
2023-05-21T10:41:32.676Z,248.00
2023-05-21T10:42:32.690Z,249.00
2023-05-21T10:43:32.695Z,251.00
2023-05-21T10:44:32.676Z,251.00
2023-05-21T10:45:32.744Z,251.00
2023-05-21T10:46:32.707Z,251.00
2023-05-21T10:47:32.640Z,253.00
2023-05-21T10:48:32.619Z,253.00
2023-05-21T10:49:32.658Z,253.00
2023-05-21T10:50:32.621Z,252.00
2023-05-21T10:51:32.625Z,253.00
2023-05-21T10:52:32.673Z,252.00
2023-05-21T10:53:32.624Z,253.00
2023-05-21T10:54:32.643Z,253.00
2023-05-21T10:55:32.654Z,250.00
2023-05-21T10:56:32.673Z,249.00
2023-05-21T10:57:32.673Z,249.00
2023-05-21T10:58:32.691Z,249.00
2023-05-21T10:59:32.671Z,250.00
2023-05-21T11:00:32.692Z,249.00
2023-05-21T11:01:32.727Z,251.00
2023-05-21T11:02:32.780Z,252.00
2023-05-21T11:03:35.026Z,254.00
2023-05-21T11:04:32.725Z,253.00
2023-05-21T11:05:32.746Z,254.00
2023-05-21T11:06:32.727Z,255.00
2023-05-21T11:07:32.671Z,252.00
2023-05-21T11:08:32.741Z,251.00
2023-05-21T11:09:32.742Z,250.00
2023-05-21T11:10:32.694Z,251.00
2023-05-21T11:11:32.674Z,250.00
2023-05-21T11:12:32.749Z,250.00
2023-05-21T11:13:32.676Z,249.00
2023-05-21T11:14:32.768Z,248.00
2023-05-21T11:15:32.625Z,250.00
2023-05-21T11:16:32.681Z,250.00
2023-05-21T11:17:32.649Z,251.00
2023-05-21T11:18:32.660Z,250.00
2023-05-21T11:19:34.114Z,251.00
2023-05-21T11:20:32.641Z,251.00
2023-05-21T11:21:32.622Z,251.00
2023-05-21T11:22:32.584Z,250.00
2023-05-21T11:23:32.587Z,247.00
2023-05-21T11:24:32.592Z,246.00
2023-05-21T11:25:32.598Z,244.00
2023-05-21T11:26:32.591Z,246.00
2023-05-21T11:27:32.624Z,246.00
2023-05-21T11:28:32.573Z,246.00
2023-05-21T11:29:32.530Z,243.00
2023-05-21T11:30:35.223Z,243.00
2023-05-21T11:31:32.557Z,244.00
2023-05-21T11:32:32.696Z,245.00
2023-05-21T11:33:32.551Z,248.00
2023-05-21T11:34:32.527Z,250.00
2023-05-21T11:35:32.513Z,250.00
2023-05-21T11:36:34.710Z,250.00
2023-05-21T11:37:32.520Z,252.00
2023-05-21T11:38:32.528Z,251.00
2023-05-21T11:39:32.497Z,252.00
2023-05-21T11:40:32.491Z,252.00
2023-05-21T11:41:32.498Z,252.00
2023-05-21T11:42:32.457Z,251.00
2023-05-21T11:43:32.504Z,251.00
2023-05-21T11:44:32.434Z,249.00
2023-05-21T11:45:32.473Z,249.00
2023-05-21T11:46:32.513Z,249.00
2023-05-21T11:47:32.551Z,250.00
2023-05-21T11:48:32.746Z,251.00
2023-05-21T11:49:32.461Z,250.00
2023-05-21T11:50:32.432Z,249.00
2023-05-21T11:51:32.435Z,248.00
2023-05-21T11:52:32.392Z,249.00
2023-05-21T11:53:32.402Z,250.00
2023-05-21T11:54:32.386Z,248.00
2023-05-21T11:55:32.362Z,249.00
2023-05-21T11:56:32.398Z,248.00
2023-05-21T11:57:32.371Z,250.00
2023-05-21T11:58:32.420Z,249.00
2023-05-21T11:59:32.367Z,249.00
2023-05-21T12:00:32.335Z,249.00
2023-05-21T12:01:32.359Z,248.00
2023-05-21T12:02:32.678Z,247.00
2023-05-21T12:03:32.392Z,246.00
2023-05-21T12:04:32.319Z,246.00
2023-05-21T12:05:32.347Z,248.00
2023-05-21T12:06:32.352Z,247.00
2023-05-21T12:07:32.334Z,246.00
2023-05-21T12:08:32.328Z,244.00
2023-05-21T12:09:32.330Z,243.00
2023-05-21T12:10:32.280Z,242.00
2023-05-21T12:11:32.300Z,241.00
2023-05-21T12:12:42.199Z,243.00
2023-05-21T12:13:33.293Z,243.00
2023-05-21T12:14:32.280Z,244.00
2023-05-21T12:15:32.240Z,244.00
2023-05-21T12:16:32.292Z,246.00
2023-05-21T12:17:32.338Z,247.00
2023-05-21T12:18:32.238Z,249.00
2023-05-21T12:19:32.268Z,249.00
2023-05-21T12:20:32.213Z,249.00
2023-05-21T12:21:32.217Z,251.00
2023-05-21T12:22:32.205Z,249.00
2023-05-21T12:23:32.220Z,248.00
2023-05-21T12:24:32.192Z,246.00
2023-05-21T12:25:32.191Z,243.00
2023-05-21T12:26:32.170Z,242.00
2023-05-21T12:27:33.512Z,240.00
2023-05-21T12:28:32.162Z,240.00